createdAt,value
2023-04-03T00:02:22.758Z,98536.84
2023-04-03T00:04:50.046Z,98538.44
2023-04-03T00:07:18.060Z,98533.85
2023-04-03T00:09:46.187Z,98535.07
2023-04-03T00:12:12.925Z,98534.31
2023-04-03T00:14:39.873Z,98535.59
2023-04-03T00:17:07.464Z,98534.82
2023-04-03T00:19:35.419Z,98534.88
2023-04-03T00:22:02.449Z,98536.48
2023-04-03T00:24:35.951Z,98536.77
2023-04-03T00:27:02.792Z,98537.80
2023-04-03T00:29:30.752Z,98536.04
2023-04-03T00:31:57.716Z,98539.40
2023-04-03T00:34:26.076Z,98538.70
2023-04-03T00:36:53.025Z,98534.61
2023-04-03T00:39:20.168Z,98535.27
2023-04-03T00:41:48.951Z,98531.15
2023-04-03T00:44:21.152Z,98528.83
2023-04-03T00:46:49.296Z,98526.86
2023-04-03T00:49:16.339Z,98526.14
2023-04-03T00:51:43.281Z,98524.90
2023-04-03T00:54:10.463Z,98528.64
2023-04-03T00:56:37.476Z,98523.17
2023-04-03T00:59:08.888Z,98524.98
2023-04-03T01:01:36.457Z,98526.17
2023-04-03T01:04:06.281Z,98521.15
2023-04-03T01:06:35.943Z,98521.48
2023-04-03T01:09:07.657Z,98523.42
2023-04-03T01:11:34.648Z,98521.75
2023-04-03T01:14:02.341Z,98523.63
2023-04-03T01:16:32.235Z,98522.24
2023-04-03T01:19:00.290Z,98522.60
2023-04-03T01:21:36.486Z,98520.31
2023-04-03T01:24:18.843Z,98522.27
2023-04-03T01:26:45.997Z,98520.51
2023-04-03T01:29:12.878Z,98523.08
2023-04-03T01:31:57.100Z,98522.05
2023-04-03T01:34:24.329Z,98523.85
2023-04-03T01:36:51.527Z,98523.23
2023-04-03T01:39:18.548Z,98524.63
2023-04-03T01:41:45.350Z,98522.62
2023-04-03T01:44:20.391Z,98522.00
2023-04-03T01:46:47.266Z,98521.14
2023-04-03T01:49:14.778Z,98520.20
2023-04-03T01:51:42.552Z,98519.65
2023-04-03T01:54:09.563Z,98524.84
2023-04-03T01:56:36.497Z,98519.67
2023-04-03T01:59:03.388Z,98520.95
2023-04-03T02:01:30.729Z,98518.15
2023-04-03T02:03:57.520Z,98519.17
2023-04-03T02:06:24.410Z,98514.92
2023-04-03T02:08:51.873Z,98516.77
2023-04-03T02:11:18.513Z,98516.55
2023-04-03T02:13:45.259Z,98515.94
2023-04-03T02:16:13.493Z,98518.16
2023-04-03T02:18:40.242Z,98523.23
2023-04-03T02:21:09.077Z,98523.92
2023-04-03T02:23:37.260Z,98526.87
2023-04-03T02:26:07.932Z,98526.91
2023-04-03T02:28:35.276Z,98529.19
2023-04-03T02:31:02.938Z,98528.80
2023-04-03T02:33:30.897Z,98530.39
2023-04-03T02:35:59.192Z,98531.30
2023-04-03T02:38:26.157Z,98527.88
2023-04-03T02:41:02.386Z,98533.39
2023-04-03T02:43:29.200Z,98531.74
2023-04-03T02:45:56.026Z,98533.33
2023-04-03T02:48:23.124Z,98532.77
2023-04-03T02:50:50.800Z,98532.03
2023-04-03T02:53:17.969Z,98532.31
2023-04-03T02:55:46.555Z,98531.27
2023-04-03T02:58:13.232Z,98533.98
2023-04-03T03:00:40.021Z,98535.22
2023-04-03T03:03:06.976Z,98533.71
2023-04-03T03:05:33.610Z,98538.18
2023-04-03T03:08:01.095Z,98538.65
2023-04-03T03:10:28.043Z,98538.54
2023-04-03T03:12:54.819Z,98540.38
2023-04-03T03:15:22.522Z,98541.31
2023-04-03T03:17:50.091Z,98540.29
2023-04-03T03:20:17.056Z,98539.02
2023-04-03T03:22:45.057Z,98539.21
2023-04-03T03:25:11.725Z,98538.65
2023-04-03T03:27:44.725Z,98538.56
2023-04-03T03:30:11.659Z,98538.11
2023-04-03T03:32:38.490Z,98535.36
2023-04-03T03:35:05.577Z,98538.29
2023-04-03T03:37:32.298Z,98540.70
2023-04-03T03:39:59.250Z,98537.02
2023-04-03T03:42:25.894Z,98536.20
2023-04-03T03:44:52.580Z,98538.63
2023-04-03T03:47:20.581Z,98542.23
2023-04-03T03:49:48.510Z,98543.50
2023-04-03T03:52:15.874Z,98543.20
2023-04-03T03:54:43.386Z,98544.61
2023-04-03T03:57:11.209Z,98544.98
2023-04-03T03:59:38.214Z,98542.75
2023-04-03T04:02:05.286Z,98547.61
2023-04-03T04:04:33.698Z,98544.56
2023-04-03T04:07:00.950Z,98545.98
2023-04-03T04:09:29.003Z,98548.92
2023-04-03T04:11:55.750Z,98547.42
2023-04-03T04:14:28.806Z,98546.02
2023-04-03T04:16:56.132Z,98548.79
2023-04-03T04:19:25.134Z,98549.05
2023-04-03T04:21:53.358Z,98552.73
2023-04-03T04:24:20.271Z,98558.34
2023-04-03T04:26:47.351Z,98558.75
2023-04-03T04:29:14.303Z,98557.81
2023-04-03T04:31:40.966Z,98557.52
2023-04-03T04:34:10.550Z,98557.77
2023-04-03T04:36:37.459Z,98558.02
2023-04-03T04:39:05.584Z,98557.31
2023-04-03T04:41:34.765Z,98561.25
2023-04-03T04:44:02.910Z,98559.00
2023-04-03T04:46:30.754Z,98556.90
2023-04-03T04:48:57.928Z,98558.34
2023-04-03T04:51:26.934Z,98560.17
2023-04-03T04:53:56.043Z,98559.36
2023-04-03T04:56:25.799Z,98559.52
2023-04-03T04:58:54.771Z,98556.95
2023-04-03T05:01:21.839Z,98558.23
2023-04-03T05:03:59.780Z,98559.77
2023-04-03T05:06:26.670Z,98561.48
2023-04-03T05:08:53.374Z,98561.58
2023-04-03T05:11:25.899Z,98565.67
2023-04-03T05:13:52.944Z,98563.41
2023-04-03T05:16:19.792Z,98567.81
2023-04-03T05:18:50.153Z,98565.77
2023-04-03T05:21:19.463Z,98567.63
2023-04-03T05:23:46.583Z,98566.23
2023-04-03T05:26:13.576Z,98572.44
2023-04-03T05:28:41.002Z,98573.60
2023-04-03T05:31:09.025Z,98573.96
2023-04-03T05:33:36.531Z,98576.58
2023-04-03T05:36:04.973Z,98577.02
2023-04-03T05:38:33.753Z,98585.02
2023-04-03T05:41:04.133Z,98585.42
2023-04-03T05:43:31.501Z,98582.16
2023-04-03T05:45:58.985Z,98585.66
2023-04-03T05:48:26.273Z,98584.14
2023-04-03T05:50:54.593Z,98588.08
2023-04-03T05:53:27.876Z,98584.89
2023-04-03T05:55:55.790Z,98590.40
2023-04-03T05:58:23.286Z,98593.79
2023-04-03T06:00:51.918Z,98594.94
2023-04-03T06:03:38.723Z,98597.60
2023-04-03T06:06:08.354Z,98596.95
2023-04-03T06:08:35.436Z,98596.06
2023-04-03T06:11:02.937Z,98600.70
2023-04-03T06:13:30.031Z,98603.16
2023-04-03T06:15:57.581Z,98605.44
2023-04-03T06:18:24.546Z,98608.63
2023-04-03T06:20:51.758Z,98613.88
2023-04-03T06:23:20.338Z,98613.17
2023-04-03T06:25:47.500Z,98615.04
2023-04-03T06:28:14.470Z,98616.45
2023-04-03T06:30:42.797Z,98615.83
2023-04-03T06:33:15.104Z,98618.77
2023-04-03T06:35:42.612Z,98618.98
2023-04-03T06:38:10.298Z,98620.20
2023-04-03T06:45:22.016Z,98627.09
2023-04-03T06:47:49.261Z,98624.02
2023-04-03T06:50:17.221Z,98625.41
2023-04-03T06:52:46.098Z,98629.23
2023-04-03T06:55:13.060Z,98627.96
2023-04-03T06:57:41.813Z,98633.54
2023-04-03T07:00:10.759Z,98637.05
2023-04-03T07:02:54.187Z,98635.46
2023-04-03T07:05:21.816Z,98641.02
2023-04-03T07:07:50.262Z,98643.05
2023-04-03T07:10:17.105Z,98639.96
2023-04-03T07:12:43.944Z,98642.98
2023-04-03T07:15:13.482Z,98642.07
2023-04-03T07:17:41.190Z,98642.13
2023-04-03T07:20:09.816Z,98642.88
2023-04-03T07:22:37.599Z,98642.44
2023-04-03T07:25:07.652Z,98645.61
2023-04-03T07:27:38.520Z,98647.34
2023-04-03T07:34:37.822Z,98649.22
2023-04-03T07:37:05.412Z,98653.95
2023-04-03T07:39:33.460Z,98655.19
2023-04-03T07:42:00.650Z,98651.91
2023-04-03T07:49:19.919Z,98653.95
2023-04-03T07:51:47.185Z,98649.59
2023-04-03T07:54:15.572Z,98655.27
2023-04-03T07:56:43.395Z,98657.20
2023-04-03T07:59:11.936Z,98655.39
2023-04-03T08:01:39.671Z,98658.81
2023-04-03T08:04:07.708Z,98661.20
2023-04-03T08:06:45.557Z,98658.86
2023-04-03T08:09:15.713Z,98662.73
2023-04-03T08:11:43.738Z,98662.46
2023-04-03T08:14:18.002Z,98663.29
2023-04-03T08:16:49.679Z,98665.17
2023-04-03T08:19:26.065Z,98666.20
2023-04-03T08:21:57.608Z,98671.13
2023-04-03T08:24:29.590Z,98671.77
2023-04-03T08:26:59.593Z,98674.32
2023-04-03T08:29:29.532Z,98675.70
2023-04-03T08:32:00.478Z,98675.62
2023-04-03T08:34:35.588Z,98679.39
2023-04-03T08:37:08.966Z,98679.20
2023-04-03T08:39:44.050Z,98682.39
2023-04-03T08:43:17.874Z,98683.61
2023-04-03T08:45:59.634Z,98681.74
2023-04-03T08:48:41.622Z,98681.77
2023-04-03T08:52:05.168Z,98686.35
2023-04-03T08:56:21.160Z,98689.42
2023-04-03T08:59:22.429Z,98688.85
2023-04-03T09:03:11.355Z,98688.10
2023-04-03T09:10:32.640Z,98693.48
2023-04-03T09:13:26.694Z,98695.02
2023-04-03T09:23:54.615Z,98696.00
2023-04-03T09:26:39.992Z,98698.31
2023-04-03T09:29:08.072Z,98698.02
2023-04-03T09:31:42.674Z,98700.02
2023-04-03T09:34:24.174Z,98702.58
2023-04-03T09:36:52.605Z,98702.63
2023-04-03T09:39:22.121Z,98705.31
2023-04-03T09:42:03.570Z,98707.44
2023-04-03T09:44:38.071Z,98709.07
2023-04-03T09:47:27.109Z,98709.34
2023-04-03T09:50:30.911Z,98705.30
2023-04-03T09:52:58.178Z,98707.96
2023-04-03T09:55:30.046Z,98712.39
2023-04-03T09:58:08.462Z,98711.91
2023-04-03T10:00:39.595Z,98711.33
2023-04-03T10:03:36.074Z,98711.27
2023-04-03T10:06:03.929Z,98717.36
2023-04-03T10:08:35.052Z,98718.02
2023-04-03T10:11:19.227Z,98717.23
2023-04-03T10:13:54.646Z,98717.38
2023-04-03T10:16:46.127Z,98718.83
2023-04-03T10:19:30.926Z,98727.13
2023-04-03T10:22:15.159Z,98726.35
2023-04-03T10:24:55.221Z,98729.27
2023-04-03T10:27:57.187Z,98729.48
2023-04-03T10:30:35.942Z,98729.33
2023-04-03T10:33:33.126Z,98729.23
2023-04-03T10:36:18.024Z,98733.56
2023-04-03T10:38:45.481Z,98736.41
2023-04-03T10:41:17.052Z,98737.22
2023-04-03T10:43:44.690Z,98739.80
2023-04-03T10:46:25.298Z,98746.48
2023-04-03T10:49:17.860Z,98745.54
2023-04-03T10:51:49.764Z,98744.90
2023-04-03T10:54:19.472Z,98750.56
2023-04-03T10:57:04.426Z,98751.89
2023-04-03T10:59:44.407Z,98752.27
2023-04-03T11:02:16.024Z,98751.73
2023-04-03T11:04:44.223Z,98749.63
2023-04-03T11:07:24.664Z,98754.48
2023-04-03T11:10:29.017Z,98755.20
2023-04-03T11:13:16.541Z,98751.93
2023-04-03T11:15:47.200Z,98754.47
2023-04-03T11:18:19.862Z,98754.62
2023-04-03T11:21:04.544Z,98756.16
2023-04-03T11:23:48.938Z,98756.82
2023-04-03T11:26:23.313Z,98759.89
2023-04-03T11:28:58.897Z,98761.61
2023-04-03T11:31:29.200Z,98761.13
2023-04-03T11:34:07.105Z,98764.27
2023-04-03T11:36:55.948Z,98765.65
2023-04-03T11:39:32.581Z,98766.21
2023-04-03T11:42:17.374Z,98768.73
2023-04-03T11:44:44.913Z,98771.21
2023-04-03T11:47:12.758Z,98770.46
2023-04-03T11:50:02.335Z,98771.96
2023-04-03T11:52:40.408Z,98776.92
2023-04-03T11:55:24.822Z,98775.71
2023-04-03T11:57:58.266Z,98777.15
2023-04-03T12:00:43.991Z,98780.29
2023-04-03T12:03:23.602Z,98778.26
2023-04-03T12:05:53.596Z,98782.23
2023-04-03T12:08:29.749Z,98786.16
2023-04-03T12:11:08.915Z,98786.66
2023-04-03T12:13:51.224Z,98792.30
2023-04-03T12:16:22.531Z,98795.59
2023-04-03T12:18:51.015Z,98796.58
2023-04-03T12:21:22.140Z,98799.64
2023-04-03T12:24:08.694Z,98799.58
2023-04-03T12:27:04.626Z,98800.73
2023-04-03T12:29:35.236Z,98807.23
2023-04-03T12:32:24.679Z,98813.29
2023-04-03T12:35:07.133Z,98816.17
2023-04-03T12:37:40.629Z,98813.89
2023-04-03T12:40:11.612Z,98814.04
2023-04-03T12:43:14.174Z,98815.91
2023-04-03T12:45:45.885Z,98818.16
2023-04-03T12:48:18.047Z,98821.11
2023-04-03T12:50:48.612Z,98826.30
2023-04-03T12:53:17.652Z,98824.52
2023-04-03T12:55:44.340Z,98827.63
2023-04-03T12:58:24.589Z,98830.43
2023-04-03T13:01:09.777Z,98836.21
2023-04-03T13:03:45.073Z,98838.49
2023-04-03T13:06:17.568Z,98842.39
2023-04-03T13:09:00.943Z,98843.69
2023-04-03T13:11:39.114Z,98848.09
2023-04-03T13:14:23.954Z,98849.93
2023-04-03T13:22:34.551Z,98868.41
2023-04-03T13:25:04.001Z,98870.39
2023-04-03T13:27:31.357Z,98870.31
2023-04-03T13:29:59.370Z,98876.88
2023-04-03T13:32:29.130Z,98878.81
2023-04-03T13:34:58.311Z,98877.07
2023-04-03T13:37:28.453Z,98881.66
2023-04-03T13:40:07.724Z,98886.96
2023-04-03T13:42:41.550Z,98893.23
2023-04-03T13:45:12.167Z,98889.31
2023-04-03T13:47:41.545Z,98897.71
2023-04-03T13:50:20.166Z,98904.19
2023-04-03T13:52:54.702Z,98906.75
2023-04-03T13:55:26.807Z,98907.08
2023-04-03T13:57:56.610Z,98913.89
2023-04-03T14:00:49.029Z,98920.34
2023-04-03T14:03:31.619Z,98924.83
2023-04-03T14:05:59.346Z,98927.38
2023-04-03T14:08:42.217Z,98927.79
2023-04-03T14:11:17.640Z,98932.98
2023-04-03T14:13:44.803Z,98936.80
2023-04-03T14:16:20.052Z,98945.60
2023-04-03T14:18:50.355Z,98945.52
2023-04-03T14:21:18.571Z,98950.73
2023-04-03T14:23:45.928Z,98952.84
2023-04-03T14:26:13.976Z,98954.96
2023-04-03T14:28:44.029Z,98957.86
2023-04-03T14:31:12.733Z,98958.98
2023-04-03T14:33:41.128Z,98954.05
2023-04-03T14:36:15.105Z,98958.33
2023-04-03T14:43:14.054Z,98967.14
2023-04-03T14:45:40.646Z,98973.96
2023-04-03T14:48:12.212Z,98974.98
2023-04-03T14:50:39.850Z,98975.88
2023-04-03T14:53:07.119Z,98973.38
2023-04-03T14:55:33.813Z,98970.26
2023-04-03T14:58:01.723Z,98973.85
2023-04-03T15:00:28.871Z,98976.34
2023-04-03T15:03:20.011Z,98978.94
2023-04-03T15:05:47.854Z,98983.38
2023-04-03T15:08:22.069Z,98991.05
2023-04-03T15:10:49.183Z,98994.86
2023-04-03T15:13:22.571Z,98992.33
2023-04-03T15:15:50.211Z,98997.34
2023-04-03T15:18:26.836Z,99001.29
2023-04-03T15:20:54.590Z,99007.96
2023-04-03T15:23:26.075Z,99014.20
2023-04-03T15:25:53.699Z,99014.42
2023-04-03T15:28:35.537Z,99017.28
2023-04-03T15:31:03.617Z,99019.27
2023-04-03T15:33:31.697Z,99019.65
2023-04-03T15:36:06.733Z,99023.11
2023-04-03T15:38:35.102Z,99028.11
2023-04-03T15:41:02.090Z,99024.30
2023-04-03T15:43:29.617Z,99033.95
2023-04-03T15:45:57.277Z,99032.18
2023-04-03T15:48:26.934Z,99030.38
2023-04-03T15:50:53.534Z,99032.12
2023-04-03T15:53:20.871Z,99034.05
2023-04-03T15:55:47.640Z,99031.98
2023-04-03T15:58:14.290Z,99034.33
2023-04-03T16:00:41.733Z,99035.08
2023-04-03T16:03:12.931Z,99037.90
2023-04-03T16:05:39.840Z,99039.54
2023-04-03T16:08:07.953Z,99045.42
2023-04-03T16:10:37.967Z,99042.27
2023-04-03T16:13:04.984Z,99041.99
2023-04-03T16:15:32.683Z,99044.55
2023-04-03T16:17:59.819Z,99041.91
2023-04-03T16:20:26.910Z,99047.04
2023-04-03T16:22:53.868Z,99044.68
2023-04-03T16:25:21.004Z,99047.55
2023-04-03T16:27:47.707Z,99047.55
2023-04-03T16:30:14.382Z,99055.23
2023-04-03T16:32:42.867Z,99051.77
2023-04-03T16:35:11.040Z,99056.77
2023-04-03T16:37:39.173Z,99059.83
2023-04-03T16:40:06.912Z,99062.16
2023-04-03T16:42:33.964Z,99066.09
2023-04-03T16:45:03.886Z,99064.18
2023-04-03T16:47:30.836Z,99066.15
2023-04-03T16:49:57.571Z,99070.85
2023-04-03T16:52:24.581Z,99071.09
2023-04-03T16:54:55.669Z,99075.09
2023-04-03T16:57:24.953Z,99080.63
2023-04-03T16:59:51.660Z,99079.72
2023-04-03T17:02:18.905Z,99079.09
2023-04-03T17:04:45.817Z,99087.58
2023-04-03T17:07:12.409Z,99092.62
2023-04-03T17:09:39.431Z,99093.80
2023-04-03T17:12:06.045Z,99098.55
2023-04-03T17:14:32.940Z,99101.91
2023-04-03T17:16:59.583Z,99101.61
2023-04-03T17:19:27.221Z,99106.58
2023-04-03T17:21:53.816Z,99112.34
2023-04-03T17:24:20.497Z,99113.73
2023-04-03T17:26:47.528Z,99118.30
2023-04-03T17:29:14.248Z,99117.42
2023-04-03T17:31:41.171Z,99117.62
2023-04-03T17:34:08.590Z,99121.20
2023-04-03T17:36:37.527Z,99122.55
2023-04-03T17:39:05.170Z,99124.15
2023-04-03T17:41:31.893Z,99127.41
2023-04-03T17:43:59.071Z,99129.80
2023-04-03T17:46:26.080Z,99133.08
2023-04-03T17:48:52.697Z,99137.25
2023-04-03T17:51:21.114Z,99136.24
2023-04-03T17:53:48.266Z,99137.83
2023-04-03T17:56:23.411Z,99140.81
2023-04-03T17:58:51.158Z,99139.27
2023-04-03T18:01:20.508Z,99141.75
2023-04-03T18:03:48.081Z,99139.18
2023-04-03T18:06:16.948Z,99137.06
2023-04-03T18:09:04.987Z,99136.73
2023-04-03T18:11:32.784Z,99140.95
2023-04-03T18:14:02.273Z,99146.82
2023-04-03T18:16:29.763Z,99149.80
2023-04-03T18:19:06.874Z,99153.28
2023-04-03T18:21:47.156Z,99157.86
2023-04-03T18:24:15.343Z,99157.16
2023-04-03T18:26:43.534Z,99157.74
2023-04-03T18:29:10.899Z,99162.94
2023-04-03T18:31:37.870Z,99163.02
2023-04-03T18:34:04.615Z,99168.48
2023-04-03T18:36:31.282Z,99171.38
2023-04-03T18:38:58.360Z,99175.63
2023-04-03T18:41:27.947Z,99181.21
2023-04-03T18:43:55.737Z,99177.77
2023-04-03T18:46:22.491Z,99178.57
2023-04-03T18:48:49.329Z,99182.48
2023-04-03T18:51:16.244Z,99182.71
2023-04-03T18:53:44.175Z,99183.80
2023-04-03T18:56:16.063Z,99186.23
2023-04-03T18:58:43.483Z,99188.98
2023-04-03T19:01:11.470Z,99191.09
2023-04-03T19:03:40.825Z,99196.30
2023-04-03T19:06:07.761Z,99204.09
2023-04-03T19:08:35.069Z,99205.11
2023-04-03T19:11:02.548Z,99206.20
2023-04-03T19:13:32.886Z,99208.40
2023-04-03T19:15:59.804Z,99212.38
2023-04-03T19:18:26.683Z,99212.59
2023-04-03T19:20:54.548Z,99213.46
2023-04-03T19:23:23.046Z,99207.45
2023-04-03T19:26:00.310Z,99210.26
2023-04-03T19:28:27.248Z,99216.03
2023-04-03T19:30:55.633Z,99217.02
2023-04-03T19:33:24.837Z,99217.44
2023-04-03T19:35:52.475Z,99215.02
2023-04-03T19:38:19.164Z,99221.30
2023-04-03T19:40:46.482Z,99221.41
2023-04-03T19:43:13.849Z,99220.21
2023-04-03T19:45:41.541Z,99219.69
2023-04-03T19:48:08.809Z,99216.25
2023-04-03T19:50:36.909Z,99207.17
2023-04-03T19:53:03.954Z,99200.80
2023-04-03T19:55:30.768Z,99192.81
2023-04-03T19:57:59.045Z,99192.71
2023-04-03T20:00:26.089Z,99199.73
2023-04-03T20:03:04.374Z,99198.58
2023-04-03T20:05:32.322Z,99199.70
2023-04-03T20:07:59.041Z,99201.89
2023-04-03T20:10:25.888Z,99202.66
2023-04-03T20:12:52.801Z,99202.27
2023-04-03T20:15:20.846Z,99204.71
2023-04-03T20:17:51.042Z,99211.77
2023-04-03T20:20:20.300Z,99211.63
2023-04-03T20:22:52.878Z,99217.20
2023-04-03T20:25:43.730Z,99218.91
2023-04-03T20:28:11.758Z,99219.30
2023-04-03T20:30:42.850Z,99220.88
2023-04-03T20:33:13.874Z,99225.05
2023-04-03T20:35:42.849Z,99230.33
2023-04-03T20:38:13.891Z,99231.06
2023-04-03T20:40:43.915Z,99233.84
2023-04-03T20:43:13.305Z,99235.52
2023-04-03T20:45:43.895Z,99232.84
2023-04-03T20:48:14.469Z,99232.86
2023-04-03T20:50:46.010Z,99237.14
2023-04-03T20:53:18.923Z,99240.83
2023-04-03T20:56:08.395Z,99239.33
2023-04-03T20:58:42.932Z,99238.69
2023-04-03T21:01:19.905Z,99236.05
2023-04-03T21:03:51.018Z,99234.88
2023-04-03T21:06:56.620Z,99230.92
2023-04-03T21:10:03.917Z,99235.52
2023-04-03T21:13:09.546Z,99245.87
2023-04-03T21:23:34.373Z,99247.15
2023-04-03T21:26:01.440Z,99251.45
2023-04-03T21:28:28.250Z,99252.44
2023-04-03T21:30:55.300Z,99253.91
2023-04-03T21:33:24.202Z,99253.58
2023-04-03T21:35:57.263Z,99255.84
2023-04-03T21:38:25.573Z,99249.55
2023-04-03T21:40:55.932Z,99248.80
2023-04-03T21:43:23.682Z,99248.98
2023-04-03T21:45:56.979Z,99251.27
2023-04-03T21:48:24.175Z,99259.64
2023-04-03T21:50:53.821Z,99266.43
2023-04-03T21:53:21.961Z,99271.11
2023-04-03T21:55:56.545Z,99270.99
2023-04-03T21:58:31.821Z,99271.67
2023-04-03T22:01:10.183Z,99271.98
2023-04-03T22:03:38.214Z,99273.48
2023-04-03T22:06:05.129Z,99280.45
2023-04-03T22:08:34.844Z,99283.59
2023-04-03T22:11:13.068Z,99286.03
2023-04-03T22:13:40.608Z,99281.45
2023-04-03T22:16:08.529Z,99282.81
2023-04-03T22:18:35.633Z,99277.90
2023-04-03T22:21:02.466Z,99276.11
2023-04-03T22:23:31.199Z,99277.38
2023-04-03T22:26:08.919Z,99279.19
2023-04-03T22:28:37.669Z,99279.52
2023-04-03T22:31:07.635Z,99279.54
2023-04-03T22:33:38.082Z,99276.63
2023-04-03T22:36:05.711Z,99272.95
2023-04-03T22:38:32.587Z,99268.61
2023-04-03T22:41:04.627Z,99271.55
2023-04-03T22:43:32.653Z,99267.92
2023-04-03T22:46:01.098Z,99264.39
2023-04-03T22:48:28.190Z,99259.63
2023-04-03T22:50:55.112Z,99257.55
2023-04-03T22:53:23.100Z,99261.00
2023-04-03T22:56:20.304Z,99263.48
2023-04-03T22:58:47.873Z,99261.04
2023-04-03T23:01:15.343Z,99261.06
2023-04-03T23:03:42.950Z,99261.27
2023-04-03T23:06:09.833Z,99261.48
2023-04-03T23:08:41.486Z,99265.09
2023-04-03T23:11:11.215Z,99267.39
2023-04-03T23:13:38.059Z,99270.40
2023-04-03T23:16:06.277Z,99269.48
2023-04-03T23:18:33.572Z,99275.66
2023-04-03T23:21:08.694Z,99280.01
2023-04-03T23:23:35.689Z,99278.36
2023-04-03T23:26:02.689Z,99275.67
2023-04-03T23:28:30.748Z,99278.89
2023-04-03T23:31:02.461Z,99278.10
2023-04-03T23:33:30.773Z,99275.08
2023-04-03T23:35:58.832Z,99272.80
2023-04-03T23:38:26.315Z,99268.79
2023-04-03T23:40:53.674Z,99268.43
2023-04-03T23:43:20.526Z,99274.80
2023-04-03T23:45:48.764Z,99269.23
2023-04-03T23:48:16.708Z,99269.24
2023-04-03T23:50:44.018Z,99268.00
2023-04-03T23:53:14.035Z,99270.79
2023-04-03T23:55:41.488Z,99270.44
2023-04-03T23:58:10.206Z,99269.69
